Weather at Kolín Airport

Public forecast

Using degrees Celsius for public forecast. Weather courtesy of forecast.io.

Closest aviation weather report (METAR) to Kolín Airport

Closest report is Čáslav Air Base, 8.9 nm (16.4 km) ESE. Retrieved 2021/05/12 09:00 UTC (18 minutes ago):

LKCV 120900Z 24005KT 9999 OVC017 17/13 Q1006 NOSIG RMK WHT WHT

Closest aviation forecast (TAF) to Kolín Airport

Closest forecast is Čáslav Air Base, 8.9 nm (16.4 km) ESE. Retrieved 2021/05/12 06:00 UTC (3 hours ago):

TAF LKCV 120500Z 1206/1306 30008KT 9999 BKN030 TEMPO 1210/1217 5000 SHRA BKN020TCU PROB40 TEMPO 1211/1216 30016G26KT 4000 TSRA BKN017CB BECMG 1217/1219 24006KT BECMG 1300/1306 3000 RA BKN012 OVC030 PROB30 TEMPO 1303/1306 3000 TSRA BKN017CB